sensor_id;sensor_type;location;lat;lon;timestamp;temperature;humidity
77613;DHT22;66777;52.282;5.960;2023-08-24T00:00:10;19.00;73.20
77613;DHT22;66777;52.282;5.960;2023-08-24T00:02:36;19.00;73.20
77613;DHT22;66777;52.282;5.960;2023-08-24T00:05:02;19.00;73.20
77613;DHT22;66777;52.282;5.960;2023-08-24T00:07:29;19.00;73.20
77613;DHT22;66777;52.282;5.960;2023-08-24T00:09:54;19.00;73.20
77613;DHT22;66777;52.282;5.960;2023-08-24T00:12:20;19.00;73.20
77613;DHT22;66777;52.282;5.960;2023-08-24T00:14:45;19.00;73.30
77613;DHT22;66777;52.282;5.960;2023-08-24T00:17:11;18.90;73.30
77613;DHT22;66777;52.282;5.960;2023-08-24T00:19:36;18.90;73.30
77613;DHT22;66777;52.282;5.960;2023-08-24T00:22:02;18.90;73.30
77613;DHT22;66777;52.282;5.960;2023-08-24T00:24:27;18.90;73.30
77613;DHT22;66777;52.282;5.960;2023-08-24T00:26:53;18.90;73.30
77613;DHT22;66777;52.282;5.960;2023-08-24T00:29:19;18.80;73.30
77613;DHT22;66777;52.282;5.960;2023-08-24T00:31:44;18.80;73.40
77613;DHT22;66777;52.282;5.960;2023-08-24T00:34:10;18.80;73.40
77613;DHT22;66777;52.282;5.960;2023-08-24T00:36:35;18.80;73.30
77613;DHT22;66777;52.282;5.960;2023-08-24T00:39:01;18.70;73.10
77613;DHT22;66777;52.282;5.960;2023-08-24T00:41:26;18.70;73.20
77613;DHT22;66777;52.282;5.960;2023-08-24T00:43:52;18.70;73.20
77613;DHT22;66777;52.282;5.960;2023-08-24T00:46:19;18.70;73.20
77613;DHT22;66777;52.282;5.960;2023-08-24T00:48:45;18.70;73.10
77613;DHT22;66777;52.282;5.960;2023-08-24T00:51:10;18.60;73.10
77613;DHT22;66777;52.282;5.960;2023-08-24T00:53:37;18.60;73.20
77613;DHT22;66777;52.282;5.960;2023-08-24T00:56:03;18.60;73.30
77613;DHT22;66777;52.282;5.960;2023-08-24T00:58:29;18.60;73.40
77613;DHT22;66777;52.282;5.960;2023-08-24T01:00:57;18.60;73.50
77613;DHT22;66777;52.282;5.960;2023-08-24T01:03:23;18.60;73.40
77613;DHT22;66777;52.282;5.960;2023-08-24T01:05:49;18.60;73.30
77613;DHT22;66777;52.282;5.960;2023-08-24T01:08:15;18.70;73.20
77613;DHT22;66777;52.282;5.960;2023-08-24T01:10:52;18.60;73.20
77613;DHT22;66777;52.282;5.960;2023-08-24T01:13:30;18.60;73.10
77613;DHT22;66777;52.282;5.960;2023-08-24T01:16:13;18.60;73.10
77613;DHT22;66777;52.282;5.960;2023-08-24T01:18:41;18.60;73.00
77613;DHT22;66777;52.282;5.960;2023-08-24T01:21:08;18.50;73.10
77613;DHT22;66777;52.282;5.960;2023-08-24T01:23:41;18.50;73.20
77613;DHT22;66777;52.282;5.960;2023-08-24T01:26:17;18.50;73.30
77613;DHT22;66777;52.282;5.960;2023-08-24T01:28:44;18.50;73.30
77613;DHT22;66777;52.282;5.960;2023-08-24T01:31:10;18.50;73.40
77613;DHT22;66777;52.282;5.960;2023-08-24T01:33:36;18.50;73.30
77613;DHT22;66777;52.282;5.960;2023-08-24T01:36:02;18.50;73.40
77613;DHT22;66777;52.282;5.960;2023-08-24T01:38:28;18.50;73.40
77613;DHT22;66777;52.282;5.960;2023-08-24T01:41:16;18.50;73.40
77613;DHT22;66777;52.282;5.960;2023-08-24T01:43:46;18.50;73.40
77613;DHT22;66777;52.282;5.960;2023-08-24T01:46:15;18.50;73.40
77613;DHT22;66777;52.282;5.960;2023-08-24T01:48:43;18.50;73.40
77613;DHT22;66777;52.282;5.960;2023-08-24T01:51:10;18.40;73.30
77613;DHT22;66777;52.282;5.960;2023-08-24T01:53:36;18.30;73.40
77613;DHT22;66777;52.282;5.960;2023-08-24T01:56:11;18.30;73.50
77613;DHT22;66777;52.282;5.960;2023-08-24T01:58:37;18.30;73.60
77613;DHT22;66777;52.282;5.960;2023-08-24T02:01:04;18.40;73.50
77613;DHT22;66777;52.282;5.960;2023-08-24T02:03:30;18.40;73.50
77613;DHT22;66777;52.282;5.960;2023-08-24T02:05:56;18.40;73.40
77613;DHT22;66777;52.282;5.960;2023-08-24T02:08:22;18.50;73.40
77613;DHT22;66777;52.282;5.960;2023-08-24T02:10:47;18.50;73.40
77613;DHT22;66777;52.282;5.960;2023-08-24T02:13:13;18.50;73.30
77613;DHT22;66777;52.282;5.960;2023-08-24T02:15:38;18.50;73.40
77613;DHT22;66777;52.282;5.960;2023-08-24T02:18:07;18.50;73.40
77613;DHT22;66777;52.282;5.960;2023-08-24T02:20:40;18.50;73.40
77613;DHT22;66777;52.282;5.960;2023-08-24T02:23:06;18.50;73.50
77613;DHT22;66777;52.282;5.960;2023-08-24T02:25:32;18.50;73.50
77613;DHT22;66777;52.282;5.960;2023-08-24T02:27:58;18.60;73.60
77613;DHT22;66777;52.282;5.960;2023-08-24T02:30:24;18.50;73.60
77613;DHT22;66777;52.282;5.960;2023-08-24T02:32:50;18.60;73.60
77613;DHT22;66777;52.282;5.960;2023-08-24T02:35:16;18.60;73.70
77613;DHT22;66777;52.282;5.960;2023-08-24T02:37:42;18.60;74.00
77613;DHT22;66777;52.282;5.960;2023-08-24T02:40:08;18.60;74.20
77613;DHT22;66777;52.282;5.960;2023-08-24T02:42:34;18.60;74.60
77613;DHT22;66777;52.282;5.960;2023-08-24T02:45:00;18.60;75.00
77613;DHT22;66777;52.282;5.960;2023-08-24T02:47:26;18.60;75.30
77613;DHT22;66777;52.282;5.960;2023-08-24T02:49:51;18.60;75.70
77613;DHT22;66777;52.282;5.960;2023-08-24T02:52:17;18.60;76.10
77613;DHT22;66777;52.282;5.960;2023-08-24T02:54:42;18.50;76.50
77613;DHT22;66777;52.282;5.960;2023-08-24T02:57:08;18.50;76.90
77613;DHT22;66777;52.282;5.960;2023-08-24T02:59:34;18.50;77.20
77613;DHT22;66777;52.282;5.960;2023-08-24T03:01:59;18.40;77.40
77613;DHT22;66777;52.282;5.960;2023-08-24T03:04:25;18.10;77.90
77613;DHT22;66777;52.282;5.960;2023-08-24T03:06:51;17.80;78.60
77613;DHT22;66777;52.282;5.960;2023-08-24T03:09:17;17.60;79.10
77613;DHT22;66777;52.282;5.960;2023-08-24T03:11:42;17.60;79.40
77613;DHT22;66777;52.282;5.960;2023-08-24T03:14:08;17.70;79.30
77613;DHT22;66777;52.282;5.960;2023-08-24T03:16:34;17.80;79.30
77613;DHT22;66777;52.282;5.960;2023-08-24T03:18:59;18.00;79.10
77613;DHT22;66777;52.282;5.960;2023-08-24T03:21:25;18.10;78.90
77613;DHT22;66777;52.282;5.960;2023-08-24T03:23:50;18.20;78.80
77613;DHT22;66777;52.282;5.960;2023-08-24T03:26:16;18.20;78.70
77613;DHT22;66777;52.282;5.960;2023-08-24T03:28:42;18.30;78.80
77613;DHT22;66777;52.282;5.960;2023-08-24T03:31:08;18.30;78.90
77613;DHT22;66777;52.282;5.960;2023-08-24T03:33:34;18.40;79.00
77613;DHT22;66777;52.282;5.960;2023-08-24T03:36:00;18.40;79.10
77613;DHT22;66777;52.282;5.960;2023-08-24T03:38:27;18.40;79.20
77613;DHT22;66777;52.282;5.960;2023-08-24T03:41:00;18.40;79.30
77613;DHT22;66777;52.282;5.960;2023-08-24T03:43:26;18.50;79.40
77613;DHT22;66777;52.282;5.960;2023-08-24T03:45:51;18.50;79.60
77613;DHT22;66777;52.282;5.960;2023-08-24T03:48:18;18.40;79.70
77613;DHT22;66777;52.282;5.960;2023-08-24T03:50:43;18.40;79.80
77613;DHT22;66777;52.282;5.960;2023-08-24T03:53:09;18.40;79.80
77613;DHT22;66777;52.282;5.960;2023-08-24T03:55:34;18.30;79.80
77613;DHT22;66777;52.282;5.960;2023-08-24T03:58:00;18.30;80.10
77613;DHT22;66777;52.282;5.960;2023-08-24T04:00:25;18.30;80.10
77613;DHT22;66777;52.282;5.960;2023-08-24T04:02:51;18.30;80.20
77613;DHT22;66777;52.282;5.960;2023-08-24T04:05:17;18.30;80.10
77613;DHT22;66777;52.282;5.960;2023-08-24T04:07:43;18.30;80.10
77613;DHT22;66777;52.282;5.960;2023-08-24T04:10:08;18.30;80.20
77613;DHT22;66777;52.282;5.960;2023-08-24T04:12:34;18.40;80.20
77613;DHT22;66777;52.282;5.960;2023-08-24T04:15:00;18.40;80.20
77613;DHT22;66777;52.282;5.960;2023-08-24T04:17:26;18.30;80.20
77613;DHT22;66777;52.282;5.960;2023-08-24T04:19:51;18.30;80.20
77613;DHT22;66777;52.282;5.960;2023-08-24T04:22:18;18.30;80.20
77613;DHT22;66777;52.282;5.960;2023-08-24T04:24:43;18.30;80.30
77613;DHT22;66777;52.282;5.960;2023-08-24T04:27:09;18.30;80.30
77613;DHT22;66777;52.282;5.960;2023-08-24T04:29:35;18.30;80.50
77613;DHT22;66777;52.282;5.960;2023-08-24T04:32:02;18.30;80.50
77613;DHT22;66777;52.282;5.960;2023-08-24T04:34:28;18.30;80.60
77613;DHT22;66777;52.282;5.960;2023-08-24T04:36:53;18.30;80.70
77613;DHT22;66777;52.282;5.960;2023-08-24T04:39:20;18.30;80.80
77613;DHT22;66777;52.282;5.960;2023-08-24T04:41:45;18.20;80.80
77613;DHT22;66777;52.282;5.960;2023-08-24T04:44:11;18.20;80.90
77613;DHT22;66777;52.282;5.960;2023-08-24T04:46:37;18.20;81.00
77613;DHT22;66777;52.282;5.960;2023-08-24T04:49:02;18.20;81.00
77613;DHT22;66777;52.282;5.960;2023-08-24T04:51:28;18.20;81.00
77613;DHT22;66777;52.282;5.960;2023-08-24T04:53:54;18.20;81.00
77613;DHT22;66777;52.282;5.960;2023-08-24T04:56:20;18.20;81.00
77613;DHT22;66777;52.282;5.960;2023-08-24T04:58:53;18.20;81.00
77613;DHT22;66777;52.282;5.960;2023-08-24T05:01:19;18.20;81.10
77613;DHT22;66777;52.282;5.960;2023-08-24T05:03:45;18.20;81.10
77613;DHT22;66777;52.282;5.960;2023-08-24T05:06:10;18.20;81.10
77613;DHT22;66777;52.282;5.960;2023-08-24T05:08:36;18.20;81.20
77613;DHT22;66777;52.282;5.960;2023-08-24T05:11:01;18.20;81.20
77613;DHT22;66777;52.282;5.960;2023-08-24T05:13:35;18.20;81.30
77613;DHT22;66777;52.282;5.960;2023-08-24T05:16:00;18.20;81.30
77613;DHT22;66777;52.282;5.960;2023-08-24T05:18:26;18.20;81.30
77613;DHT22;66777;52.282;5.960;2023-08-24T05:20:51;18.20;81.20
77613;DHT22;66777;52.282;5.960;2023-08-24T05:23:17;18.20;81.30
77613;DHT22;66777;52.282;5.960;2023-08-24T05:25:43;18.30;81.30
77613;DHT22;66777;52.282;5.960;2023-08-24T05:28:08;18.30;81.20
77613;DHT22;66777;52.282;5.960;2023-08-24T05:30:34;18.30;81.20
77613;DHT22;66777;52.282;5.960;2023-08-24T05:33:00;18.30;81.10
77613;DHT22;66777;52.282;5.960;2023-08-24T05:35:25;18.30;80.90
77613;DHT22;66777;52.282;5.960;2023-08-24T05:37:52;18.30;80.90
77613;DHT22;66777;52.282;5.960;2023-08-24T05:40:18;18.30;80.70
77613;DHT22;66777;52.282;5.960;2023-08-24T05:42:43;18.30;80.70
77613;DHT22;66777;52.282;5.960;2023-08-24T05:45:09;18.40;80.70
77613;DHT22;66777;52.282;5.960;2023-08-24T05:47:35;18.40;80.70
77613;DHT22;66777;52.282;5.960;2023-08-24T05:50:00;18.40;80.70
77613;DHT22;66777;52.282;5.960;2023-08-24T05:52:26;18.40;80.60
77613;DHT22;66777;52.282;5.960;2023-08-24T05:54:52;18.50;80.70
77613;DHT22;66777;52.282;5.960;2023-08-24T05:57:18;18.50;80.60
77613;DHT22;66777;52.282;5.960;2023-08-24T05:59:43;18.50;80.50
77613;DHT22;66777;52.282;5.960;2023-08-24T06:02:09;18.40;80.50
77613;DHT22;66777;52.282;5.960;2023-08-24T06:04:35;18.40;80.50
77613;DHT22;66777;52.282;5.960;2023-08-24T06:07:00;18.40;80.60
77613;DHT22;66777;52.282;5.960;2023-08-24T06:09:26;18.40;80.50
77613;DHT22;66777;52.282;5.960;2023-08-24T06:11:52;18.30;80.50
77613;DHT22;66777;52.282;5.960;2023-08-24T06:14:17;18.30;80.50
77613;DHT22;66777;52.282;5.960;2023-08-24T06:16:43;18.30;80.50
77613;DHT22;66777;52.282;5.960;2023-08-24T06:19:09;18.40;80.50
77613;DHT22;66777;52.282;5.960;2023-08-24T06:21:34;18.50;80.30
77613;DHT22;66777;52.282;5.960;2023-08-24T06:24:00;18.60;80.20
77613;DHT22;66777;52.282;5.960;2023-08-24T06:26:26;18.60;80.00
77613;DHT22;66777;52.282;5.960;2023-08-24T06:28:52;18.70;80.00
77613;DHT22;66777;52.282;5.960;2023-08-24T06:31:17;18.70;80.00
77613;DHT22;66777;52.282;5.960;2023-08-24T06:33:43;18.80;79.90
77613;DHT22;66777;52.282;5.960;2023-08-24T06:36:09;18.80;79.80
77613;DHT22;66777;52.282;5.960;2023-08-24T06:38:34;18.80;79.90
77613;DHT22;66777;52.282;5.960;2023-08-24T06:41:00;18.80;79.90
77613;DHT22;66777;52.282;5.960;2023-08-24T06:43:26;18.80;80.00
77613;DHT22;66777;52.282;5.960;2023-08-24T06:45:54;18.80;80.00
77613;DHT22;66777;52.282;5.960;2023-08-24T06:48:19;18.90;80.00
77613;DHT22;66777;52.282;5.960;2023-08-24T06:50:45;18.90;80.00
77613;DHT22;66777;52.282;5.960;2023-08-24T06:53:10;18.90;79.90
77613;DHT22;66777;52.282;5.960;2023-08-24T06:55:36;18.90;79.90
77613;DHT22;66777;52.282;5.960;2023-08-24T06:58:02;18.90;79.90
77613;DHT22;66777;52.282;5.960;2023-08-24T07:00:30;18.90;80.10
77613;DHT22;66777;52.282;5.960;2023-08-24T07:02:56;18.90;80.00
77613;DHT22;66777;52.282;5.960;2023-08-24T07:05:22;18.90;80.00
77613;DHT22;66777;52.282;5.960;2023-08-24T07:07:49;18.90;80.20
77613;DHT22;66777;52.282;5.960;2023-08-24T07:10:15;18.90;80.10
77613;DHT22;66777;52.282;5.960;2023-08-24T07:12:40;18.90;80.10
77613;DHT22;66777;52.282;5.960;2023-08-24T07:15:09;18.90;80.10
77613;DHT22;66777;52.282;5.960;2023-08-24T07:17:35;18.90;80.20
77613;DHT22;66777;52.282;5.960;2023-08-24T07:20:00;19.00;80.30
77613;DHT22;66777;52.282;5.960;2023-08-24T07:22:26;19.00;80.30
77613;DHT22;66777;52.282;5.960;2023-08-24T07:24:52;19.10;80.10
77613;DHT22;66777;52.282;5.960;2023-08-24T07:27:18;19.10;80.00
77613;DHT22;66777;52.282;5.960;2023-08-24T07:29:44;19.20;80.00
77613;DHT22;66777;52.282;5.960;2023-08-24T07:32:10;19.30;79.90
77613;DHT22;66777;52.282;5.960;2023-08-24T07:34:35;19.40;79.70
77613;DHT22;66777;52.282;5.960;2023-08-24T07:37:01;19.50;79.60
77613;DHT22;66777;52.282;5.960;2023-08-24T07:39:27;19.50;79.40
77613;DHT22;66777;52.282;5.960;2023-08-24T07:41:52;19.60;79.20
77613;DHT22;66777;52.282;5.960;2023-08-24T07:44:18;19.70;79.10
77613;DHT22;66777;52.282;5.960;2023-08-24T07:46:44;19.70;79.10
77613;DHT22;66777;52.282;5.960;2023-08-24T07:49:09;19.90;79.00
77613;DHT22;66777;52.282;5.960;2023-08-24T07:51:35;20.00;78.80
77613;DHT22;66777;52.282;5.960;2023-08-24T07:54:01;20.10;78.70
77613;DHT22;66777;52.282;5.960;2023-08-24T07:56:29;20.30;78.50
77613;DHT22;66777;52.282;5.960;2023-08-24T07:58:55;20.50;78.10
77613;DHT22;66777;52.282;5.960;2023-08-24T08:01:21;20.60;77.90
77613;DHT22;66777;52.282;5.960;2023-08-24T08:03:46;20.60;78.00
77613;DHT22;66777;52.282;5.960;2023-08-24T08:06:12;20.70;77.80
77613;DHT22;66777;52.282;5.960;2023-08-24T08:08:39;20.90;76.90
77613;DHT22;66777;52.282;5.960;2023-08-24T08:11:04;21.00;76.20
77613;DHT22;66777;52.282;5.960;2023-08-24T08:13:30;21.10;75.80
77613;DHT22;66777;52.282;5.960;2023-08-24T08:16:06;21.30;75.20
77613;DHT22;66777;52.282;5.960;2023-08-24T08:18:33;21.40;75.00
77613;DHT22;66777;52.282;5.960;2023-08-24T08:20:58;21.30;75.30
77613;DHT22;66777;52.282;5.960;2023-08-24T08:23:24;21.30;75.70
77613;DHT22;66777;52.282;5.960;2023-08-24T08:25:50;21.50;75.00
77613;DHT22;66777;52.282;5.960;2023-08-24T08:28:16;21.70;74.30
77613;DHT22;66777;52.282;5.960;2023-08-24T08:30:43;21.70;73.70
77613;DHT22;66777;52.282;5.960;2023-08-24T08:33:09;21.80;73.50
77613;DHT22;66777;52.282;5.960;2023-08-24T08:35:34;21.80;73.70
77613;DHT22;66777;52.282;5.960;2023-08-24T08:38:00;21.80;74.00
77613;DHT22;66777;52.282;5.960;2023-08-24T08:40:26;21.90;73.70
77613;DHT22;66777;52.282;5.960;2023-08-24T08:42:58;21.90;73.30
77613;DHT22;66777;52.282;5.960;2023-08-24T08:45:28;21.90;72.70
77613;DHT22;66777;52.282;5.960;2023-08-24T08:48:01;21.90;72.70
77613;DHT22;66777;52.282;5.960;2023-08-24T08:50:27;21.90;72.70
77613;DHT22;66777;52.282;5.960;2023-08-24T08:52:52;22.00;72.50
77613;DHT22;66777;52.282;5.960;2023-08-24T08:55:19;22.00;72.50
77613;DHT22;66777;52.282;5.960;2023-08-24T08:57:48;21.90;72.70
77613;DHT22;66777;52.282;5.960;2023-08-24T09:00:15;21.90;72.50
77613;DHT22;66777;52.282;5.960;2023-08-24T09:02:43;22.00;72.40
77613;DHT22;66777;52.282;5.960;2023-08-24T09:05:11;22.00;72.60
77613;DHT22;66777;52.282;5.960;2023-08-24T09:07:41;21.90;72.90
77613;DHT22;66777;52.282;5.960;2023-08-24T09:10:07;22.00;72.40
77613;DHT22;66777;52.282;5.960;2023-08-24T09:12:34;22.00;72.10
77613;DHT22;66777;52.282;5.960;2023-08-24T09:15:00;22.10;71.60
77613;DHT22;66777;52.282;5.960;2023-08-24T09:17:29;22.20;71.30
77613;DHT22;66777;52.282;5.960;2023-08-24T09:19:58;22.10;71.50
77613;DHT22;66777;52.282;5.960;2023-08-24T09:22:24;22.10;71.90
77613;DHT22;66777;52.282;5.960;2023-08-24T09:24:50;22.00;72.00
77613;DHT22;66777;52.282;5.960;2023-08-24T09:27:17;22.00;72.30
77613;DHT22;66777;52.282;5.960;2023-08-24T09:29:47;22.00;72.40
77613;DHT22;66777;52.282;5.960;2023-08-24T09:32:13;22.10;72.50
77613;DHT22;66777;52.282;5.960;2023-08-24T09:34:39;22.10;72.30
77613;DHT22;66777;52.282;5.960;2023-08-24T09:37:11;22.20;72.30
77613;DHT22;66777;52.282;5.960;2023-08-24T09:39:37;22.20;72.30
77613;DHT22;66777;52.282;5.960;2023-08-24T09:42:03;22.30;72.30
77613;DHT22;66777;52.282;5.960;2023-08-24T09:44:28;22.40;72.40
77613;DHT22;66777;52.282;5.960;2023-08-24T09:46:54;22.50;72.30
77613;DHT22;66777;52.282;5.960;2023-08-24T09:49:20;22.50;72.10
77613;DHT22;66777;52.282;5.960;2023-08-24T09:51:46;22.60;71.90
77613;DHT22;66777;52.282;5.960;2023-08-24T09:54:15;22.60;71.90
77613;DHT22;66777;52.282;5.960;2023-08-24T09:56:42;22.70;71.80
77613;DHT22;66777;52.282;5.960;2023-08-24T09:59:13;22.80;71.70
77613;DHT22;66777;52.282;5.960;2023-08-24T10:01:43;22.90;71.50
77613;DHT22;66777;52.282;5.960;2023-08-24T10:04:10;22.90;71.40
77613;DHT22;66777;52.282;5.960;2023-08-24T10:06:39;22.90;71.50
77613;DHT22;66777;52.282;5.960;2023-08-24T10:09:07;23.00;71.50
77613;DHT22;66777;52.282;5.960;2023-08-24T10:11:36;23.00;71.50
77613;DHT22;66777;52.282;5.960;2023-08-24T10:14:15;23.00;71.50
77613;DHT22;66777;52.282;5.960;2023-08-24T10:16:42;23.00;71.60
77613;DHT22;66777;52.282;5.960;2023-08-24T10:19:09;22.90;71.80
77613;DHT22;66777;52.282;5.960;2023-08-24T10:21:37;22.80;72.20
77613;DHT22;66777;52.282;5.960;2023-08-24T10:24:04;22.80;72.20
77613;DHT22;66777;52.282;5.960;2023-08-24T10:26:30;22.80;72.30
77613;DHT22;66777;52.282;5.960;2023-08-24T10:28:57;22.70;72.50
77613;DHT22;66777;52.282;5.960;2023-08-24T10:31:23;22.70;72.60
77613;DHT22;66777;52.282;5.960;2023-08-24T10:33:50;22.70;72.70
77613;DHT22;66777;52.282;5.960;2023-08-24T10:36:16;22.70;72.80
77613;DHT22;66777;52.282;5.960;2023-08-24T10:38:44;22.70;72.90
77613;DHT22;66777;52.282;5.960;2023-08-24T10:41:10;22.60;73.00
77613;DHT22;66777;52.282;5.960;2023-08-24T10:43:40;22.60;73.10
77613;DHT22;66777;52.282;5.960;2023-08-24T10:46:15;22.70;73.00
77613;DHT22;66777;52.282;5.960;2023-08-24T10:54:00;22.70;73.20
77613;DHT22;66777;52.282;5.960;2023-08-24T10:56:36;22.70;73.30
77613;DHT22;66777;52.282;5.960;2023-08-24T10:59:17;22.80;73.20
77613;DHT22;66777;52.282;5.960;2023-08-24T11:01:55;22.80;72.90
77613;DHT22;66777;52.282;5.960;2023-08-24T11:04:21;22.90;72.70
77613;DHT22;66777;52.282;5.960;2023-08-24T11:06:58;22.90;72.70
77613;DHT22;66777;52.282;5.960;2023-08-24T11:09:25;22.90;72.60
77613;DHT22;66777;52.282;5.960;2023-08-24T11:12:01;22.90;72.50
77613;DHT22;66777;52.282;5.960;2023-08-24T11:14:29;22.90;72.60
77613;DHT22;66777;52.282;5.960;2023-08-24T11:17:18;22.80;72.90
77613;DHT22;66777;52.282;5.960;2023-08-24T11:19:53;22.80;72.80
77613;DHT22;66777;52.282;5.960;2023-08-24T11:22:20;22.80;72.90
77613;DHT22;66777;52.282;5.960;2023-08-24T11:24:48;22.70;73.20
77613;DHT22;66777;52.282;5.960;2023-08-24T11:27:15;22.70;73.50
77613;DHT22;66777;52.282;5.960;2023-08-24T11:29:42;22.70;73.50
77613;DHT22;66777;52.282;5.960;2023-08-24T11:32:08;22.60;73.80
77613;DHT22;66777;52.282;5.960;2023-08-24T11:34:34;22.60;74.10
77613;DHT22;66777;52.282;5.960;2023-08-24T11:37:00;22.60;74.30
77613;DHT22;66777;52.282;5.960;2023-08-24T11:39:26;22.60;74.40
77613;DHT22;66777;52.282;5.960;2023-08-24T11:44:27;22.60;74.80
77613;DHT22;66777;52.282;5.960;2023-08-24T11:46:52;22.50;75.00
77613;DHT22;66777;52.282;5.960;2023-08-24T11:49:18;22.50;75.00
77613;DHT22;66777;52.282;5.960;2023-08-24T11:51:44;22.60;75.10
77613;DHT22;66777;52.282;5.960;2023-08-24T11:54:09;22.60;75.20
77613;DHT22;66777;52.282;5.960;2023-08-24T11:56:42;22.60;75.20
77613;DHT22;66777;52.282;5.960;2023-08-24T11:59:15;22.70;75.00
77613;DHT22;66777;52.282;5.960;2023-08-24T12:01:42;22.80;74.80
77613;DHT22;66777;52.282;5.960;2023-08-24T12:04:08;22.80;74.40
77613;DHT22;66777;52.282;5.960;2023-08-24T12:06:33;22.90;74.10
77613;DHT22;66777;52.282;5.960;2023-08-24T12:08:59;23.00;73.90
77613;DHT22;66777;52.282;5.960;2023-08-24T12:11:25;23.00;73.90
77613;DHT22;66777;52.282;5.960;2023-08-24T12:13:54;23.00;73.80
77613;DHT22;66777;52.282;5.960;2023-08-24T12:16:21;23.00;73.70
77613;DHT22;66777;52.282;5.960;2023-08-24T12:18:57;23.00;73.60
77613;DHT22;66777;52.282;5.960;2023-08-24T12:21:28;23.10;73.60
77613;DHT22;66777;52.282;5.960;2023-08-24T12:24:05;23.20;73.30
77613;DHT22;66777;52.282;5.960;2023-08-24T12:26:35;23.30;73.00
77613;DHT22;66777;52.282;5.960;2023-08-24T12:29:05;23.30;72.90
77613;DHT22;66777;52.282;5.960;2023-08-24T12:31:32;23.40;72.90
77613;DHT22;66777;52.282;5.960;2023-08-24T12:34:16;23.40;72.90
77613;DHT22;66777;52.282;5.960;2023-08-24T12:36:42;23.40;72.90
77613;DHT22;66777;52.282;5.960;2023-08-24T12:39:11;23.40;72.80
77613;DHT22;66777;52.282;5.960;2023-08-24T12:41:38;23.50;72.70
77613;DHT22;66777;52.282;5.960;2023-08-24T12:44:04;23.50;72.20
77613;DHT22;66777;52.282;5.960;2023-08-24T12:46:31;23.60;71.70
77613;DHT22;66777;52.282;5.960;2023-08-24T12:48:57;23.70;71.20
77613;DHT22;66777;52.282;5.960;2023-08-24T12:51:23;23.80;71.20
77613;DHT22;66777;52.282;5.960;2023-08-24T12:53:50;23.80;71.10
77613;DHT22;66777;52.282;5.960;2023-08-24T12:56:15;23.90;71.20
77613;DHT22;66777;52.282;5.960;2023-08-24T12:58:41;23.90;71.10
77613;DHT22;66777;52.282;5.960;2023-08-24T13:01:07;23.90;70.90
77613;DHT22;66777;52.282;5.960;2023-08-24T13:03:33;23.90;71.00
77613;DHT22;66777;52.282;5.960;2023-08-24T13:06:01;23.90;71.20
77613;DHT22;66777;52.282;5.960;2023-08-24T13:08:27;23.90;71.20
77613;DHT22;66777;52.282;5.960;2023-08-24T13:10:53;24.00;71.20
77613;DHT22;66777;52.282;5.960;2023-08-24T13:13:19;24.20;70.70
77613;DHT22;66777;52.282;5.960;2023-08-24T13:15:47;24.40;70.20
77613;DHT22;66777;52.282;5.960;2023-08-24T13:18:13;24.40;70.00
77613;DHT22;66777;52.282;5.960;2023-08-24T13:20:39;24.40;70.00
77613;DHT22;66777;52.282;5.960;2023-08-24T13:23:04;24.40;70.00
77613;DHT22;66777;52.282;5.960;2023-08-24T13:25:30;24.30;70.10
77613;DHT22;66777;52.282;5.960;2023-08-24T13:27:55;24.20;70.30
77613;DHT22;66777;52.282;5.960;2023-08-24T13:30:21;24.10;70.70
77613;DHT22;66777;52.282;5.960;2023-08-24T13:32:47;24.00;70.70
77613;DHT22;66777;52.282;5.960;2023-08-24T13:35:13;24.00;70.80
77613;DHT22;66777;52.282;5.960;2023-08-24T13:37:39;23.90;70.70
77613;DHT22;66777;52.282;5.960;2023-08-24T13:40:05;23.80;70.70
77613;DHT22;66777;52.282;5.960;2023-08-24T13:42:30;23.80;70.70
77613;DHT22;66777;52.282;5.960;2023-08-24T13:44:56;23.80;70.70
77613;DHT22;66777;52.282;5.960;2023-08-24T13:47:22;23.80;70.60
77613;DHT22;66777;52.282;5.960;2023-08-24T13:49:48;23.80;70.70
77613;DHT22;66777;52.282;5.960;2023-08-24T13:52:14;23.80;70.90
77613;DHT22;66777;52.282;5.960;2023-08-24T13:54:41;23.70;70.90
77613;DHT22;66777;52.282;5.960;2023-08-24T13:57:08;23.60;71.20
77613;DHT22;66777;52.282;5.960;2023-08-24T13:59:34;23.60;71.50
77613;DHT22;66777;52.282;5.960;2023-08-24T14:02:00;23.60;71.70
77613;DHT22;66777;52.282;5.960;2023-08-24T14:04:26;23.70;71.80
77613;DHT22;66777;52.282;5.960;2023-08-24T14:06:51;23.80;71.70
77613;DHT22;66777;52.282;5.960;2023-08-24T14:09:17;23.90;71.40
77613;DHT22;66777;52.282;5.960;2023-08-24T14:11:42;23.90;71.30
77613;DHT22;66777;52.282;5.960;2023-08-24T14:14:08;24.00;71.30
77613;DHT22;66777;52.282;5.960;2023-08-24T14:16:34;24.00;71.20
77613;DHT22;66777;52.282;5.960;2023-08-24T14:19:00;24.00;71.20
77613;DHT22;66777;52.282;5.960;2023-08-24T14:21:26;24.00;71.20
77613;DHT22;66777;52.282;5.960;2023-08-24T14:23:52;24.10;71.00
77613;DHT22;66777;52.282;5.960;2023-08-24T14:26:17;24.10;70.90
77613;DHT22;66777;52.282;5.960;2023-08-24T14:28:51;24.20;70.50
77613;DHT22;66777;52.282;5.960;2023-08-24T14:31:25;24.20;70.10
77613;DHT22;66777;52.282;5.960;2023-08-24T14:33:51;24.10;70.30
77613;DHT22;66777;52.282;5.960;2023-08-24T14:36:18;24.00;70.70
77613;DHT22;66777;52.282;5.960;2023-08-24T14:38:44;24.00;71.00
77613;DHT22;66777;52.282;5.960;2023-08-24T14:41:11;23.90;71.30
77613;DHT22;66777;52.282;5.960;2023-08-24T14:43:38;23.90;71.60
77613;DHT22;66777;52.282;5.960;2023-08-24T14:46:04;23.90;71.80
77613;DHT22;66777;52.282;5.960;2023-08-24T14:48:30;23.80;71.80
77613;DHT22;66777;52.282;5.960;2023-08-24T14:50:55;23.90;71.80
77613;DHT22;66777;52.282;5.960;2023-08-24T14:53:24;23.90;71.90
77613;DHT22;66777;52.282;5.960;2023-08-24T14:55:50;23.80;72.00
77613;DHT22;66777;52.282;5.960;2023-08-24T14:58:16;23.80;72.20
77613;DHT22;66777;52.282;5.960;2023-08-24T15:00:42;23.70;72.40
77613;DHT22;66777;52.282;5.960;2023-08-24T15:03:10;23.60;72.70
77613;DHT22;66777;52.282;5.960;2023-08-24T15:05:44;23.60;73.00
77613;DHT22;66777;52.282;5.960;2023-08-24T15:08:10;23.60;73.00
77613;DHT22;66777;52.282;5.960;2023-08-24T15:10:37;23.60;73.00
77613;DHT22;66777;52.282;5.960;2023-08-24T15:13:03;23.60;73.30
77613;DHT22;66777;52.282;5.960;2023-08-24T15:15:29;23.60;73.50
77613;DHT22;66777;52.282;5.960;2023-08-24T15:17:55;23.60;73.70
77613;DHT22;66777;52.282;5.960;2023-08-24T15:20:20;23.60;74.10
77613;DHT22;66777;52.282;5.960;2023-08-24T15:22:46;23.60;74.20
77613;DHT22;66777;52.282;5.960;2023-08-24T15:25:12;23.60;74.20
77613;DHT22;66777;52.282;5.960;2023-08-24T15:27:37;23.60;74.30
77613;DHT22;66777;52.282;5.960;2023-08-24T15:30:03;23.60;74.30
77613;DHT22;66777;52.282;5.960;2023-08-24T15:32:31;23.50;74.40
77613;DHT22;66777;52.282;5.960;2023-08-24T15:34:57;23.50;74.50